Hoagland, Indiana
Current Conditions -  °F | °C
As of 12:04 PM on Thursday 27 Nov 2014 (Local Time) from KFWA Reporting Station
Light Snow Light Snow  
Wind Chill: 21°   Ceiling: 1400
Heat Index: 31°   Visibility: 2.5mi
Dew Point: 27°   Wind: 14mph
Humidity: 85%   Direction: 250°WSW
Pressure: 30.24"   Gusts: NA
Location:  40.95°N, 84.99°W
Report Text: KFWA 271704Z 25012KT 2 1/2SM -SN BR OVC014 M01/M03 A3024 RMK AO2 P0000 T10061028
Loading
Personal Weather Stations






























Interactive Weather Map New forecast layout! Learn more

10-Day Weather Forecast

Advertisements
Track Severe Weather on mobile